Time;durP1;ratioP1;P1;durP2;ratioP2;P2;SDS_P1;SDS_P2;PMS_P1;PMS_P2;Temp;Humidity;BMP_temperature;BMP_pressure;BME280_temperature;BME280_humidity;BME280_pressure;Samples;Min_cycle;Max_cycle;Signal;HPM_P1;HPM_P2
2021/06/28 00:02:10;;;;;;;;;;;17.60;99.90;;;;;;5074376;28;19919;-85
2021/06/28 00:04:36;;;;;;;;;;;17.60;99.90;;;;;;5089010;28;19916;-85
2021/06/28 00:07:01;;;;;;;;;;;17.60;99.90;;;;;;5087919;28;19950;-85
2021/06/28 00:09:27;;;;;;;;;;;17.60;99.90;;;;;;5112384;28;19954;-85
2021/06/28 00:11:53;;;;;;;;;;;17.60;99.90;;;;;;5111850;28;20298;-84
2021/06/28 00:14:18;;;;;;;;;;;17.60;99.90;;;;;;5095462;28;19916;-84
2021/06/28 00:16:44;;;;;;;;;;;17.60;99.90;;;;;;5112035;28;19919;-84
2021/06/28 00:19:10;;;;;;;;;;;17.60;99.90;;;;;;5101789;28;19920;-85
2021/06/28 00:21:38;;;;;;;;;;;17.60;99.90;;;;;;5095528;28;20337;-85
2021/06/28 00:24:04;;;;;;;;;;;17.60;99.90;;;;;;5095454;28;19923;-84
2021/06/28 00:26:30;;;;;;;;;;;17.60;99.90;;;;;;5094755;28;19923;-84
2021/06/28 00:28:56;;;;;;;;;;;17.60;99.90;;;;;;5112921;28;19916;-85
2021/06/28 00:31:21;;;;;;;;;;;17.60;99.90;;;;;;5093344;28;19919;-85
2021/06/28 00:33:47;;;;;;;;;;;17.60;99.90;;;;;;5111135;28;20413;-85
2021/06/28 00:36:13;;;;;;;;;;;17.60;99.90;;;;;;5111343;28;19919;-85
2021/06/28 00:38:40;;;;;;;;;;;17.50;99.90;;;;;;5111710;28;19927;-85
2021/06/28 00:41:07;;;;;;;;;;;17.60;99.90;;;;;;5108298;28;19915;-84
2021/06/28 00:43:34;;;;;;;;;;;17.50;99.90;;;;;;5091928;28;19924;-84
2021/06/28 00:45:59;;;;;;;;;;;17.50;99.90;;;;;;5106912;28;19969;-84
2021/06/28 00:48:25;;;;;;;;;;;17.50;99.90;;;;;;5106091;28;20006;-85
2021/06/28 00:50:52;;;;;;;;;;;17.50;99.90;;;;;;5104727;28;19920;-85
2021/06/28 00:53:20;;;;;;;;;;;17.50;99.90;;;;;;5107499;28;19958;-85
2021/06/28 00:55:46;;;;;;;;;;;17.50;99.90;;;;;;5099353;28;19959;-85
2021/06/28 00:58:13;;;;;;;;;;;17.50;99.90;;;;;;5100164;28;20598;-85
2021/06/28 01:00:39;;;;;;;;;;;17.50;99.90;;;;;;5093832;28;19948;-85
2021/06/28 01:03:05;;;;;;;;;;;17.50;99.90;;;;;;5102371;28;20035;-85
2021/06/28 01:05:32;;;;;;;;;;;17.50;99.90;;;;;;5107564;28;20002;-84
2021/06/28 01:07:59;;;;;;;;;;;17.50;99.90;;;;;;5102025;28;19924;-85
2021/06/28 01:10:25;;;;;;;;;;;17.50;99.90;;;;;;5116940;27;20290;-85
2021/06/28 01:12:51;;;;;;;;;;;17.40;99.90;;;;;;5105799;28;19920;-85
2021/06/28 01:15:18;;;;;;;;;;;17.40;99.90;;;;;;5102438;28;19927;-85
2021/06/28 01:17:44;;;;;;;;;;;17.40;99.90;;;;;;5104393;28;19930;-84
2021/06/28 01:20:14;;;;;;;;;;;17.40;99.90;;;;;;5109056;28;20331;-85
2021/06/28 01:22:41;;;;;;;;;;;17.40;99.90;;;;;;5109893;28;19972;-85
2021/06/28 01:25:08;;;;;;;;;;;17.40;99.90;;;;;;5102434;28;19920;-85
2021/06/28 01:27:34;;;;;;;;;;;17.40;99.90;;;;;;5094638;28;19920;-85
2021/06/28 01:30:00;;;;;;;;;;;17.40;99.90;;;;;;5110014;28;19926;-85
2021/06/28 01:32:26;;;;;;;;;;;17.40;99.90;;;;;;5104264;28;19939;-85
2021/06/28 01:34:52;;;;;;;;;;;17.40;99.90;;;;;;5101908;28;19958;-85
2021/06/28 01:37:18;;;;;;;;;;;17.40;99.90;;;;;;5106725;28;20359;-85
2021/06/28 01:39:44;;;;;;;;;;;17.40;99.90;;;;;;5116510;27;19988;-85
2021/06/28 01:42:10;;;;;;;;;;;17.40;99.90;;;;;;5108908;28;19915;-85
2021/06/28 01:44:36;;;;;;;;;;;17.40;99.90;;;;;;5103185;28;20381;-85
2021/06/28 01:47:02;;;;;;;;;;;17.30;99.90;;;;;;5102303;28;19924;-85
2021/06/28 01:49:28;;;;;;;;;;;17.40;99.90;;;;;;5116283;27;19944;-85
2021/06/28 01:51:53;;;;;;;;;;;17.30;99.90;;;;;;5097976;28;19924;-86
2021/06/28 01:54:19;;;;;;;;;;;17.30;99.90;;;;;;5115045;27;20286;-85
2021/06/28 01:56:45;;;;;;;;;;;17.30;99.90;;;;;;5092946;28;20383;-85
2021/06/28 01:59:11;;;;;;;;;;;17.30;99.90;;;;;;5102431;28;19916;-85
2021/06/28 02:01:37;;;;;;;;;;;17.30;99.90;;;;;;5109962;28;20399;-85
2021/06/28 02:04:03;;;;;;;;;;;17.30;99.90;;;;;;5104552;28;19920;-85
2021/06/28 02:06:29;;;;;;;;;;;17.30;99.90;;;;;;5074176;28;19968;-85
2021/06/28 02:08:55;;;;;;;;;;;17.30;99.90;;;;;;5102499;28;20295;-85
2021/06/28 02:11:20;;;;;;;;;;;17.30;99.90;;;;;;5109808;28;19983;-85
2021/06/28 02:13:46;;;;;;;;;;;17.30;99.90;;;;;;5105960;28;20011;-85
2021/06/28 02:16:12;;;;;;;;;;;17.30;99.90;;;;;;5107622;28;19923;-85
2021/06/28 02:18:37;;;;;;;;;;;17.30;99.90;;;;;;5112891;27;20505;-85
2021/06/28 02:21:03;;;;;;;;;;;17.30;99.90;;;;;;5108306;28;19926;-84
2021/06/28 02:23:34;;;;;;;;;;;17.30;99.90;;;;;;5101985;28;20022;-85
2021/06/28 02:26:09;;;;;;;;;;;17.20;99.90;;;;;;5105497;28;19916;-85
2021/06/28 02:28:36;;;;;;;;;;;17.20;99.90;;;;;;5108993;28;19915;-85
2021/06/28 02:31:02;;;;;;;;;;;17.20;99.90;;;;;;5109317;28;19929;-85
2021/06/28 02:33:28;;;;;;;;;;;17.20;99.90;;;;;;5081496;28;19920;-85
2021/06/28 02:35:54;;;;;;;;;;;17.20;99.90;;;;;;5081066;28;20408;-85
2021/06/28 02:38:20;;;;;;;;;;;17.20;99.90;;;;;;5105403;28;19923;-85
2021/06/28 02:40:46;;;;;;;;;;;17.20;99.90;;;;;;5102870;28;20382;-85
2021/06/28 02:43:12;;;;;;;;;;;17.10;99.90;;;;;;5123267;27;20014;-85
2021/06/28 02:45:38;;;;;;;;;;;17.20;99.90;;;;;;5092612;28;19955;-85
2021/06/28 02:48:04;;;;;;;;;;;17.10;99.90;;;;;;5109407;28;20339;-85
2021/06/28 02:50:30;;;;;;;;;;;17.10;99.90;;;;;;5110067;28;20431;-84
2021/06/28 02:52:56;;;;;;;;;;;17.20;99.90;;;;;;5110742;28;19920;-84
2021/06/28 02:55:22;;;;;;;;;;;17.10;99.90;;;;;;5092591;28;19923;-85
2021/06/28 02:57:47;;;;;;;;;;;17.10;99.90;;;;;;5104202;28;19920;-85
2021/06/28 03:00:17;;;;;;;;;;;17.10;99.90;;;;;;5109880;28;19961;-85
2021/06/28 03:02:43;;;;;;;;;;;17.10;99.90;;;;;;5109859;28;19981;-85
2021/06/28 03:05:09;;;;;;;;;;;17.10;99.90;;;;;;5084679;28;19916;-85
2021/06/28 03:07:36;;;;;;;;;;;17.10;99.90;;;;;;5116455;27;19924;-85
2021/06/28 03:10:03;;;;;;;;;;;17.10;99.90;;;;;;5109369;28;19928;-85
2021/06/28 03:12:29;;;;;;;;;;;17.10;99.90;;;;;;5126673;27;19919;-84
2021/06/28 03:14:56;;;;;;;;;;;17.10;99.90;;;;;;5108548;28;20445;-84
2021/06/28 03:17:21;;;;;;;;;;;17.10;99.90;;;;;;5126238;27;19963;-84
2021/06/28 03:19:47;;;;;;;;;;;17.10;99.90;;;;;;5088755;28;19966;-85
2021/06/28 03:22:13;;;;;;;;;;;17.10;99.90;;;;;;5090936;28;19920;-84
2021/06/28 03:24:39;;;;;;;;;;;17.20;99.90;;;;;;5109667;28;19919;-85
2021/06/28 03:27:05;;;;;;;;;;;17.20;99.90;;;;;;5109426;28;19920;-84
2021/06/28 03:29:30;;;;;;;;;;;17.10;99.90;;;;;;5091107;28;19926;-85
2021/06/28 03:31:56;;;;;;;;;;;17.10;99.90;;;;;;5089163;28;19916;-85
2021/06/28 03:34:22;;;;;;;;;;;17.10;99.90;;;;;;5105481;28;19920;-85
2021/06/28 03:36:47;;;;;;;;;;;17.10;99.90;;;;;;5109019;28;19920;-85
2021/06/28 03:39:13;;;;;;;;;;;17.10;99.90;;;;;;5108195;28;19926;-84
2021/06/28 03:41:39;;;;;;;;;;;17.10;99.90;;;;;;5109834;28;19920;-84
2021/06/28 03:44:05;;;;;;;;;;;17.10;99.90;;;;;;5109415;28;19920;-84
2021/06/28 03:46:32;;;;;;;;;;;17.10;99.90;;;;;;5091827;28;19969;-85
2021/06/28 03:48:57;;;;;;;;;;;17.10;99.90;;;;;;5108215;28;20350;-85
2021/06/28 03:51:23;;;;;;;;;;;17.10;99.90;;;;;;5099476;28;19920;-85
2021/06/28 03:53:49;;;;;;;;;;;17.10;99.90;;;;;;5100524;28;19927;-84
2021/06/28 03:56:15;;;;;;;;;;;17.10;99.90;;;;;;5095763;28;19945;-85
2021/06/28 03:58:43;;;;;;;;;;;17.10;99.90;;;;;;5115350;28;20426;-85
2021/06/28 04:01:09;;;;;;;;;;;17.10;99.90;;;;;;5108452;28;19923;-84
2021/06/28 04:03:38;;;;;;;;;;;17.10;99.90;;;;;;5108306;28;19973;-84
2021/06/28 04:06:05;;;;;;;;;;;17.10;99.90;;;;;;5108181;28;19973;-85
2021/06/28 04:08:32;;;;;;;;;;;17.10;99.90;;;;;;5110066;28;19915;-85
2021/06/28 04:10:58;;;;;;;;;;;17.10;99.90;;;;;;5109522;28;19916;-85
2021/06/28 04:13:23;;;;;;;;;;;17.10;99.90;;;;;;5108354;28;20398;-85
2021/06/28 04:15:49;;;;;;;;;;;17.10;99.90;;;;;;5111205;28;20481;-85
2021/06/28 04:18:15;;;;;;;;;;;17.10;99.90;;;;;;5101958;28;19915;-84
2021/06/28 04:20:41;;;;;;;;;;;17.10;99.90;;;;;;5109608;28;19954;-85
2021/06/28 04:23:07;;;;;;;;;;;17.10;99.90;;;;;;5109009;28;20329;-85
2021/06/28 04:25:33;;;;;;;;;;;17.10;99.90;;;;;;5079799;28;19960;-84
2021/06/28 04:27:58;;;;;;;;;;;17.10;99.90;;;;;;5112375;28;20010;-84
2021/06/28 04:30:24;;;;;;;;;;;17.10;99.90;;;;;;5099289;28;19979;-85
2021/06/28 04:32:50;;;;;;;;;;;17.10;99.90;;;;;;5110111;28;19926;-85
2021/06/28 04:35:20;;;;;;;;;;;17.10;99.90;;;;;;5091140;28;19919;-84
2021/06/28 04:37:46;;;;;;;;;;;17.10;99.90;;;;;;5108330;28;19942;-85
2021/06/28 04:40:13;;;;;;;;;;;17.20;99.90;;;;;;5089637;28;20018;-85
2021/06/28 04:42:39;;;;;;;;;;;17.20;99.90;;;;;;5108021;28;19920;-85
2021/06/28 04:45:06;;;;;;;;;;;17.20;99.90;;;;;;5086744;28;19920;-85
2021/06/28 04:47:32;;;;;;;;;;;17.20;99.90;;;;;;5081626;28;20382;-84
2021/06/28 04:50:02;;;;;;;;;;;17.10;99.90;;;;;;5107814;28;19928;-85
2021/06/28 04:52:34;;;;;;;;;;;17.20;99.90;;;;;;5107790;28;19962;-84
2021/06/28 04:55:00;;;;;;;;;;;17.20;99.90;;;;;;5111197;28;20032;-84
2021/06/28 04:57:26;;;;;;;;;;;17.20;99.90;;;;;;5115601;28;19919;-84
2021/06/28 04:59:52;;;;;;;;;;;17.20;99.90;;;;;;5112657;28;19926;-84
2021/06/28 05:02:18;;;;;;;;;;;17.20;99.90;;;;;;5113455;28;19915;-85
2021/06/28 05:04:44;;;;;;;;;;;17.20;99.90;;;;;;5092936;28;19926;-84
2021/06/28 05:07:10;;;;;;;;;;;17.10;99.90;;;;;;5092763;28;20371;-85
2021/06/28 05:09:36;;;;;;;;;;;17.20;99.90;;;;;;5077787;28;19920;-84
2021/06/28 05:12:02;;;;;;;;;;;17.20;99.90;;;;;;5092588;28;19931;-84
2021/06/28 05:14:28;;;;;;;;;;;17.20;99.90;;;;;;5094097;28;19923;-84
2021/06/28 05:16:54;;;;;;;;;;;17.20;99.90;;;;;;5090202;28;20375;-85
2021/06/28 05:19:19;;;;;;;;;;;17.20;99.90;;;;;;5094839;28;19927;-84
2021/06/28 05:21:48;;;;;;;;;;;17.20;99.90;;;;;;5090546;28;20363;-85
2021/06/28 05:24:14;;;;;;;;;;;17.20;99.90;;;;;;5110248;28;19927;-86
2021/06/28 05:26:39;;;;;;;;;;;17.20;99.90;;;;;;5110554;28;20386;-87
2021/06/28 05:29:05;;;;;;;;;;;17.20;99.90;;;;;;5110507;28;20405;-85
2021/06/28 05:31:31;;;;;;;;;;;17.20;99.90;;;;;;5111279;28;19924;-86
2021/06/28 05:33:57;;;;;;;;;;;17.20;99.90;;;;;;5128677;27;19916;-88
2021/06/28 05:36:22;;;;;;;;;;;17.30;99.90;;;;;;5112395;28;20018;-86
2021/06/28 05:38:48;;;;;;;;;;;17.30;99.90;;;;;;5111774;28;20263;-86
2021/06/28 05:41:17;;;;;;;;;;;17.30;99.90;;;;;;5111821;28;19916;-85
2021/06/28 05:43:43;;;;;;;;;;;17.30;99.90;;;;;;5109807;28;20283;-88
2021/06/28 05:46:09;;;;;;;;;;;17.30;99.90;;;;;;5111138;28;20287;-86
2021/06/28 05:48:36;;;;;;;;;;;17.30;99.90;;;;;;5111509;28;19976;-86
2021/06/28 05:51:02;;;;;;;;;;;17.30;99.90;;;;;;5088284;28;20324;-86
2021/06/28 05:53:28;;;;;;;;;;;17.30;99.90;;;;;;5112251;28;19923;-86
2021/06/28 05:55:54;;;;;;;;;;;17.40;99.90;;;;;;5090331;28;19919;-86
2021/06/28 05:58:24;;;;;;;;;;;17.30;99.90;;;;;;5111633;28;19915;-86
2021/06/28 06:00:50;;;;;;;;;;;17.30;99.90;;;;;;5093488;28;19924;-86
2021/06/28 06:03:15;;;;;;;;;;;17.40;99.90;;;;;;5069724;28;19915;-86
2021/06/28 06:05:41;;;;;;;;;;;17.40;99.90;;;;;;5118940;27;19924;-86
2021/06/28 06:08:07;;;;;;;;;;;17.40;99.90;;;;;;5128999;27;19916;-86
2021/06/28 06:10:32;;;;;;;;;;;17.40;99.90;;;;;;5111473;28;19977;-86
2021/06/28 06:12:58;;;;;;;;;;;17.40;99.90;;;;;;5111662;28;20485;-86
2021/06/28 06:15:24;;;;;;;;;;;17.40;99.90;;;;;;5127661;27;19920;-86
2021/06/28 06:17:50;;;;;;;;;;;17.50;99.90;;;;;;5112733;28;19919;-86
2021/06/28 06:20:16;;;;;;;;;;;17.50;99.90;;;;;;5091238;28;19916;-86
2021/06/28 06:22:42;;;;;;;;;;;17.60;99.90;;;;;;5094436;28;19998;-86
2021/06/28 06:25:08;;;;;;;;;;;17.70;99.90;;;;;;5093354;28;20018;-86
2021/06/28 06:27:33;;;;;;;;;;;17.70;99.90;;;;;;5111230;28;20655;-86
2021/06/28 06:30:01;;;;;;;;;;;17.80;99.90;;;;;;5111938;28;19915;-86
2021/06/28 06:32:26;;;;;;;;;;;17.80;99.90;;;;;;5127977;27;19951;-86
2021/06/28 06:34:52;;;;;;;;;;;17.90;99.90;;;;;;5109919;28;19996;-86
2021/06/28 06:37:18;;;;;;;;;;;17.90;99.90;;;;;;5110371;28;20048;-86
2021/06/28 06:39:43;;;;;;;;;;;17.90;99.90;;;;;;5099318;28;20441;-86
2021/06/28 06:42:09;;;;;;;;;;;17.90;99.90;;;;;;5118811;27;19919;-86
2021/06/28 06:44:35;;;;;;;;;;;17.90;99.90;;;;;;5111202;28;20402;-86
2021/06/28 06:47:01;;;;;;;;;;;17.90;99.90;;;;;;5110267;28;20002;-86
2021/06/28 06:49:27;;;;;;;;;;;17.90;99.90;;;;;;5094179;28;20292;-86
2021/06/28 06:51:53;;;;;;;;;;;17.90;99.90;;;;;;5127408;27;19938;-87
2021/06/28 06:54:19;;;;;;;;;;;17.90;99.90;;;;;;5093315;28;20378;-86
2021/06/28 06:56:44;;;;;;;;;;;17.90;99.90;;;;;;5110070;28;19920;-87
2021/06/28 06:59:10;;;;;;;;;;;17.90;99.90;;;;;;5103759;28;19915;-87
2021/06/28 07:01:38;;;;;;;;;;;17.90;99.90;;;;;;5100189;28;19982;-86
2021/06/28 07:04:04;;;;;;;;;;;18.00;99.90;;;;;;5103365;28;19927;-85
2021/06/28 07:06:30;;;;;;;;;;;18.00;99.90;;;;;;5109749;28;19920;-86
2021/06/28 07:08:56;;;;;;;;;;;18.00;99.90;;;;;;5109982;28;19915;-87
2021/06/28 07:11:24;;;;;;;;;;;18.00;99.90;;;;;;5109604;28;19925;-86
2021/06/28 07:13:52;;;;;;;;;;;18.00;99.90;;;;;;5109091;28;20001;-85
2021/06/28 07:16:19;;;;;;;;;;;18.10;99.90;;;;;;5109988;28;19922;-85
2021/06/28 07:18:45;;;;;;;;;;;18.10;99.90;;;;;;5110437;28;20429;-86
2021/06/28 07:21:10;;;;;;;;;;;18.10;99.90;;;;;;5110760;28;20006;-86
2021/06/28 07:23:37;;;;;;;;;;;18.10;99.90;;;;;;5088836;28;20019;-86
2021/06/28 07:26:03;;;;;;;;;;;18.10;99.90;;;;;;5097560;28;19978;-85
2021/06/28 07:28:29;;;;;;;;;;;18.20;99.90;;;;;;5115439;27;19916;-85
2021/06/28 07:30:57;;;;;;;;;;;18.20;99.90;;;;;;5106295;28;20397;-85
2021/06/28 07:33:31;;;;;;;;;;;18.20;99.90;;;;;;5101948;28;19941;-85
2021/06/28 07:35:58;;;;;;;;;;;18.30;99.90;;;;;;5088773;28;19915;-85
2021/06/28 07:38:25;;;;;;;;;;;18.30;99.90;;;;;;5105130;28;20387;-87
2021/06/28 07:41:02;;;;;;;;;;;18.30;99.90;;;;;;5096341;28;20382;-85
2021/06/28 07:43:27;;;;;;;;;;;18.30;99.90;;;;;;5102476;28;20006;-85
2021/06/28 07:45:54;;;;;;;;;;;18.30;99.90;;;;;;5070739;28;20037;-86
2021/06/28 07:48:20;;;;;;;;;;;18.40;99.90;;;;;;5105883;28;19965;-85
2021/06/28 07:50:47;;;;;;;;;;;18.40;99.90;;;;;;5089392;28;19919;-85
2021/06/28 07:53:13;;;;;;;;;;;18.40;99.90;;;;;;5101373;28;19965;-85
2021/06/28 07:55:39;;;;;;;;;;;18.50;99.90;;;;;;5088742;28;19972;-86
2021/06/28 07:58:07;;;;;;;;;;;18.50;99.90;;;;;;5106741;28;19915;-85
2021/06/28 08:00:33;;;;;;;;;;;18.50;99.90;;;;;;5106134;28;19969;-85
2021/06/28 08:02:59;;;;;;;;;;;18.60;99.90;;;;;;5106715;28;19926;-85
2021/06/28 08:05:25;;;;;;;;;;;18.60;99.90;;;;;;5103190;28;19927;-85
2021/06/28 08:07:51;;;;;;;;;;;18.60;99.90;;;;;;5083151;28;19920;-85
2021/06/28 08:10:17;;;;;;;;;;;18.70;99.90;;;;;;5103259;28;19973;-85
2021/06/28 08:12:43;;;;;;;;;;;18.70;99.90;;;;;;5109075;28;19964;-85
2021/06/28 08:15:10;;;;;;;;;;;18.70;99.90;;;;;;5070864;28;19974;-85
2021/06/28 08:17:36;;;;;;;;;;;18.70;99.90;;;;;;5090954;28;19923;-85
2021/06/28 08:20:03;;;;;;;;;;;18.80;99.90;;;;;;5091293;28;20010;-86
2021/06/28 08:22:28;;;;;;;;;;;18.80;99.90;;;;;;5108536;28;19919;-85
2021/06/28 08:24:54;;;;;;;;;;;18.80;99.90;;;;;;5091232;28;19927;-85
2021/06/28 08:27:20;;;;;;;;;;;18.90;99.90;;;;;;5126837;27;19976;-85
2021/06/28 08:29:45;;;;;;;;;;;18.90;99.90;;;;;;5078466;28;19923;-85
2021/06/28 08:32:11;;;;;;;;;;;19.00;99.90;;;;;;5095758;28;19916;-85
2021/06/28 08:34:37;;;;;;;;;;;19.00;99.90;;;;;;5112356;28;20022;-86
2021/06/28 08:37:03;;;;;;;;;;;19.00;99.90;;;;;;5112224;28;20313;-85
2021/06/28 08:39:29;;;;;;;;;;;19.10;99.90;;;;;;5095332;28;19953;-85
2021/06/28 08:41:55;;;;;;;;;;;19.10;99.90;;;;;;5112508;28;19915;-86
2021/06/28 08:44:21;;;;;;;;;;;19.20;99.90;;;;;;5112146;28;20378;-85
2021/06/28 08:46:48;;;;;;;;;;;19.20;99.90;;;;;;5111736;28;20603;-86
2021/06/28 08:49:13;;;;;;;;;;;19.30;99.90;;;;;;5104040;28;19923;-85
2021/06/28 08:51:40;;;;;;;;;;;19.30;99.90;;;;;;5103640;28;19919;-86
2021/06/28 08:54:09;;;;;;;;;;;19.30;99.90;;;;;;5112591;28;19915;-86
2021/06/28 08:56:38;;;;;;;;;;;19.40;99.90;;;;;;5112224;28;19927;-86
2021/06/28 08:59:04;;;;;;;;;;;19.40;99.90;;;;;;5112123;28;19923;-86
2021/06/28 09:01:31;;;;;;;;;;;19.50;99.90;;;;;;5112264;28;20362;-86
2021/06/28 09:03:57;;;;;;;;;;;19.50;99.90;;;;;;5128796;27;20018;-86
2021/06/28 09:06:23;;;;;;;;;;;19.50;99.90;;;;;;5094607;28;20006;-86
2021/06/28 09:09:07;;;;;;;;;;;19.60;99.90;;;;;;5100756;28;19926;-86
2021/06/28 09:11:34;;;;;;;;;;;19.60;99.90;;;;;;5128564;27;19923;-86
2021/06/28 09:14:02;;;;;;;;;;;19.60;99.90;;;;;;5094525;28;19951;-86
2021/06/28 09:16:29;;;;;;;;;;;19.60;99.90;;;;;;5112520;28;20015;-86
2021/06/28 09:18:56;;;;;;;;;;;19.70;99.90;;;;;;5113654;28;19920;-86
2021/06/28 09:21:23;;;;;;;;;;;19.70;99.90;;;;;;5111623;28;19922;-86
2021/06/28 09:23:49;;;;;;;;;;;19.70;99.90;;;;;;5112188;28;20252;-86
2021/06/28 09:26:15;;;;;;;;;;;19.70;99.90;;;;;;5112613;28;19923;-86
2021/06/28 09:28:42;;;;;;;;;;;19.70;99.90;;;;;;5111447;28;19915;-86
2021/06/28 09:31:14;;;;;;;;;;;19.80;99.90;;;;;;5078256;28;20295;-85
2021/06/28 09:33:40;;;;;;;;;;;19.80;99.90;;;;;;5110517;28;19919;-87
2021/06/28 09:36:19;;;;;;;;;;;19.80;99.90;;;;;;5110836;28;19980;-87
2021/06/28 09:38:45;;;;;;;;;;;19.90;99.90;;;;;;5091352;28;19935;-86
2021/06/28 09:41:20;;;;;;;;;;;19.90;99.90;;;;;;5105141;28;19916;-86
2021/06/28 09:43:45;;;;;;;;;;;20.00;99.90;;;;;;5110542;28;19925;-87
2021/06/28 09:46:15;;;;;;;;;;;20.00;99.90;;;;;;5084355;28;20002;-85
2021/06/28 09:48:46;;;;;;;;;;;20.10;99.90;;;;;;5110613;28;20366;-82
2021/06/28 09:51:19;;;;;;;;;;;20.10;99.90;;;;;;5108841;28;19926;-83
2021/06/28 09:53:49;;;;;;;;;;;20.20;99.90;;;;;;5111273;28;19920;-83
2021/06/28 09:56:33;;;;;;;;;;;20.20;99.90;;;;;;5110899;28;19923;-82
2021/06/28 09:59:17;;;;;;;;;;;20.30;99.90;;;;;;5110802;28;19942;-86
2021/06/28 10:01:43;;;;;;;;;;;20.30;99.90;;;;;;5101523;28;20045;-84
2021/06/28 10:04:09;;;;;;;;;;;20.30;99.90;;;;;;5093647;28;20052;-84
2021/06/28 10:06:37;;;;;;;;;;;20.40;99.90;;;;;;5110745;28;19920;-85
2021/06/28 10:09:04;;;;;;;;;;;20.40;99.90;;;;;;5109511;28;19922;-84
2021/06/28 10:11:30;;;;;;;;;;;20.40;99.90;;;;;;5110186;28;20057;-85
2021/06/28 10:14:04;;;;;;;;;;;20.50;99.90;;;;;;5108644;28;20387;-84
2021/06/28 10:16:30;;;;;;;;;;;20.60;99.90;;;;;;5111196;28;19926;-85
2021/06/28 10:18:57;;;;;;;;;;;20.60;99.90;;;;;;5109824;28;19939;-84
2021/06/28 10:21:23;;;;;;;;;;;20.60;99.90;;;;;;5111854;28;20010;-85
2021/06/28 10:23:49;;;;;;;;;;;20.60;99.90;;;;;;5110397;28;20068;-85
2021/06/28 10:26:15;;;;;;;;;;;20.70;99.90;;;;;;5110213;28;20434;-84
2021/06/28 10:28:41;;;;;;;;;;;20.70;99.90;;;;;;5110413;28;19964;-84
2021/06/28 10:31:07;;;;;;;;;;;20.80;99.90;;;;;;5110244;28;19966;-85
2021/06/28 10:33:34;;;;;;;;;;;20.80;99.90;;;;;;5098503;28;20375;-84
2021/06/28 10:36:01;;;;;;;;;;;20.80;99.90;;;;;;5107356;28;19973;-85
2021/06/28 10:38:41;;;;;;;;;;;20.80;99.90;;;;;;5089940;28;19942;-85
2021/06/28 10:41:07;;;;;;;;;;;20.80;99.90;;;;;;5112425;27;19923;-85
2021/06/28 10:43:35;;;;;;;;;;;20.90;99.90;;;;;;5111915;28;19945;-85
2021/06/28 10:46:06;;;;;;;;;;;20.90;99.90;;;;;;5105664;28;20728;-85
2021/06/28 10:48:44;;;;;;;;;;;20.90;99.90;;;;;;5112160;28;19945;-85
2021/06/28 10:51:09;;;;;;;;;;;21.00;99.90;;;;;;5125418;27;19919;-85
2021/06/28 10:53:36;;;;;;;;;;;21.00;99.90;;;;;;5092618;28;19920;-84
2021/06/28 10:56:26;;;;;;;;;;;21.00;99.90;;;;;;5127000;27;20002;-85
2021/06/28 10:59:00;;;;;;;;;;;21.10;99.90;;;;;;5110160;28;19929;-84
2021/06/28 11:01:35;;;;;;;;;;;21.30;99.90;;;;;;5104583;28;20345;-85
2021/06/28 11:04:08;;;;;;;;;;;21.40;99.90;;;;;;5108942;28;19922;-85
2021/06/28 11:06:35;;;;;;;;;;;21.40;99.90;;;;;;5108832;28;19987;-85
2021/06/28 11:09:07;;;;;;;;;;;21.50;99.90;;;;;;5099149;28;20018;-85
2021/06/28 11:11:42;;;;;;;;;;;21.50;99.90;;;;;;5107940;28;19920;-85
2021/06/28 11:14:08;;;;;;;;;;;21.50;99.90;;;;;;5092364;28;20363;-85
2021/06/28 11:16:37;;;;;;;;;;;21.50;99.90;;;;;;5108073;28;19922;-84
2021/06/28 11:19:36;;;;;;;;;;;21.50;99.90;;;;;;5080334;28;20049;-85
2021/06/28 11:22:21;;;;;;;;;;;21.60;99.90;;;;;;5071895;27;19931;-85
2021/06/28 11:25:13;;;;;;;;;;;21.70;99.90;;;;;;5108640;28;19958;-86
2021/06/28 11:27:41;;;;;;;;;;;21.70;99.90;;;;;;5118649;27;19916;-86
2021/06/28 11:30:13;;;;;;;;;;;21.80;99.90;;;;;;5109325;28;20048;-87
2021/06/28 11:32:59;;;;;;;;;;;21.80;99.90;;;;;;5109182;28;19931;-87
2021/06/28 11:35:44;;;;;;;;;;;21.90;99.90;;;;;;5125528;27;19919;-87
2021/06/28 11:38:13;;;;;;;;;;;21.80;99.90;;;;;;5109013;28;20014;-86
2021/06/28 11:40:40;;;;;;;;;;;21.90;99.90;;;;;;5109192;28;19951;-86
2021/06/28 11:43:06;;;;;;;;;;;21.80;99.90;;;;;;5127475;27;19919;-86
2021/06/28 11:45:47;;;;;;;;;;;21.90;99.90;;;;;;5093607;28;19958;-86
2021/06/28 11:48:29;;;;;;;;;;;22.10;99.90;;;;;;5111121;28;19977;-86
2021/06/28 11:50:56;;;;;;;;;;;22.00;99.90;;;;;;5110539;28;19920;-86
2021/06/28 11:53:22;;;;;;;;;;;22.00;99.90;;;;;;5092972;28;20354;-86
2021/06/28 11:55:48;;;;;;;;;;;22.10;99.90;;;;;;5093553;28;19920;-86
2021/06/28 11:58:14;;;;;;;;;;;22.00;99.90;;;;;;5110343;28;19922;-86
2021/06/28 12:00:40;;;;;;;;;;;22.10;99.90;;;;;;5127341;28;19937;-86
2021/06/28 12:03:10;;;;;;;;;;;22.20;99.90;;;;;;5092322;28;19915;-86
2021/06/28 12:05:35;;;;;;;;;;;22.30;99.90;;;;;;5111356;28;19927;-86
2021/06/28 12:08:01;;;;;;;;;;;22.40;99.90;;;;;;5115659;28;20375;-87
2021/06/28 12:10:27;;;;;;;;;;;22.50;99.90;;;;;;5126770;28;19920;-86
2021/06/28 12:12:59;;;;;;;;;;;22.50;99.90;;;;;;5110201;28;20378;-86
2021/06/28 12:15:26;;;;;;;;;;;22.50;99.90;;;;;;5126411;28;19951;-86
2021/06/28 12:17:55;;;;;;;;;;;22.50;99.90;;;;;;5126140;28;19988;-86
2021/06/28 12:20:21;;;;;;;;;;;22.50;99.90;;;;;;5126671;28;20407;-86
2021/06/28 12:22:53;;;;;;;;;;;22.50;99.90;;;;;;5126276;28;20360;-86
2021/06/28 12:25:19;;;;;;;;;;;22.50;99.90;;;;;;5109587;28;20511;-87
2021/06/28 12:27:46;;;;;;;;;;;22.40;99.90;;;;;;5126243;28;19975;-86
2021/06/28 12:30:13;;;;;;;;;;;22.30;99.90;;;;;;5108773;28;20424;-86
2021/06/28 12:32:59;;;;;;;;;;;22.20;99.90;;;;;;5125833;28;19920;-86
2021/06/28 12:35:27;;;;;;;;;;;22.20;99.90;;;;;;5109867;28;19924;-86
2021/06/28 12:37:53;;;;;;;;;;;22.20;99.90;;;;;;5124281;28;19920;-86
2021/06/28 12:40:20;;;;;;;;;;;22.10;99.90;;;;;;5110544;28;19923;-86
2021/06/28 12:42:50;;;;;;;;;;;22.10;99.90;;;;;;5108561;28;19915;-86
2021/06/28 12:45:17;;;;;;;;;;;22.10;99.90;;;;;;5108744;28;19920;-87
2021/06/28 12:47:45;;;;;;;;;;;22.00;99.90;;;;;;5108498;28;19943;-87
2021/06/28 12:50:14;;;;;;;;;;;22.00;99.90;;;;;;5126959;28;19924;-87
2021/06/28 12:52:41;;;;;;;;;;;22.00;99.90;;;;;;5110013;28;19931;-87
2021/06/28 12:55:08;;;;;;;;;;;22.00;99.90;;;;;;5109773;28;19920;-86
2021/06/28 12:57:44;;;;;;;;;;;21.90;99.90;;;;;;5109443;28;19950;-86
2021/06/28 13:00:22;;;;;;;;;;;21.90;99.90;;;;;;5109705;28;19938;-86
2021/06/28 13:02:52;;;;;;;;;;;21.90;99.90;;;;;;5109967;28;19915;-87
2021/06/28 13:05:17;;;;;;;;;;;21.90;99.90;;;;;;5126896;28;19965;-86
2021/06/28 13:07:43;;;;;;;;;;;21.90;99.90;;;;;;5095769;28;19919;-87
2021/06/28 13:10:09;;;;;;;;;;;21.90;99.90;;;;;;5109400;28;19920;-87
2021/06/28 13:12:35;;;;;;;;;;;21.90;99.90;;;;;;5110309;28;19923;-87
2021/06/28 13:15:23;;;;;;;;;;;21.90;99.90;;;;;;5112450;28;19915;-87
2021/06/28 13:17:55;;;;;;;;;;;21.90;99.90;;;;;;5114349;28;19966;-87
2021/06/28 13:20:21;;;;;;;;;;;22.00;99.90;;;;;;5130219;27;19916;-87
2021/06/28 13:22:47;;;;;;;;;;;22.10;99.90;;;;;;5113126;28;19930;-86
2021/06/28 13:25:18;;;;;;;;;;;22.20;99.90;;;;;;5130070;27;19965;-87
2021/06/28 13:27:44;;;;;;;;;;;22.30;99.90;;;;;;5130403;27;19964;-87
2021/06/28 13:30:17;;;;;;;;;;;22.30;99.90;;;;;;5112798;28;19927;-87
2021/06/28 13:32:43;;;;;;;;;;;22.30;99.90;;;;;;5113741;28;19926;-87
2021/06/28 13:35:09;;;;;;;;;;;22.40;99.90;;;;;;5112781;28;20030;-86
2021/06/28 13:37:38;;;;;;;;;;;22.40;99.90;;;;;;5112871;28;20311;-87
2021/06/28 13:40:24;;;;;;;;;;;22.40;99.90;;;;;;5113004;28;19965;-86
2021/06/28 13:42:51;;;;;;;;;;;22.40;99.90;;;;;;5095264;28;19968;-87
2021/06/28 13:45:18;;;;;;;;;;;22.40;99.90;;;;;;5129438;27;19920;-87
2021/06/28 13:47:50;;;;;;;;;;;22.30;99.90;;;;;;5129809;27;20431;-87
2021/06/28 13:50:16;;;;;;;;;;;22.30;99.90;;;;;;5129858;27;19951;-86
2021/06/28 13:52:42;;;;;;;;;;;22.30;99.90;;;;;;5095753;28;20018;-87
2021/06/28 13:55:08;;;;;;;;;;;22.30;99.90;;;;;;5129931;27;19922;-87
2021/06/28 13:57:46;;;;;;;;;;;22.30;99.90;;;;;;5129536;27;20379;-86
2021/06/28 14:00:13;;;;;;;;;;;22.30;99.90;;;;;;5129411;27;20373;-87
2021/06/28 14:02:38;;;;;;;;;;;22.30;99.90;;;;;;5095397;28;19920;-87
2021/06/28 14:05:04;;;;;;;;;;;22.30;99.90;;;;;;5112275;28;20468;-86
2021/06/28 14:07:30;;;;;;;;;;;22.40;99.90;;;;;;5095633;28;20022;-87
2021/06/28 14:09:55;;;;;;;;;;;22.30;99.90;;;;;;5129077;27;19973;-87
2021/06/28 14:12:21;;;;;;;;;;;22.30;99.90;;;;;;5112418;28;19926;-87
2021/06/28 14:14:47;;;;;;;;;;;22.30;99.90;;;;;;5111901;28;20393;-87
2021/06/28 14:17:12;;;;;;;;;;;22.20;99.90;;;;;;5129336;27;20005;-87
2021/06/28 14:19:38;;;;;;;;;;;22.10;99.90;;;;;;5112618;28;20324;-87